Time;durP1;ratioP1;P1;durP2;ratioP2;P2;SDS_P1;SDS_P2;PMS_P1;PMS_P2;Temp;Humidity;BMP_temperature;BMP_pressure;BME280_temperature;BME280_humidity;BME280_pressure;Samples;Min_cycle;Max_cycle;Signal;HPM_P1;HPM_P2
2021/06/14 00:02:05;;;;;;;6.93;2.67;;;;;;;;;;4879922;29;20044;-44
2021/06/14 00:04:31;;;;;;;3.28;2.70;;;;;;;;;;4879881;29;20108;-45
2021/06/14 00:06:57;;;;;;;5.53;2.63;;;;;;;;;;4879779;29;20048;-45
2021/06/14 00:09:24;;;;;;;2.85;2.45;;;;;;;;;;4879903;29;20361;-45
2021/06/14 00:11:50;;;;;;;3.35;2.33;;;;;;;;;;4878536;29;20129;-45
2021/06/14 00:14:15;;;;;;;2.65;2.40;;;;;;;;;;4879685;29;20078;-45
2021/06/14 00:16:41;;;;;;;3.10;2.00;;;;;;;;;;4879630;29;20044;-44
2021/06/14 00:19:07;;;;;;;2.45;2.10;;;;;;;;;;4879751;29;20021;-46
2021/06/14 00:21:33;;;;;;;5.10;2.15;;;;;;;;;;4879378;29;20079;-44
2021/06/14 00:23:59;;;;;;;6.20;3.03;;;;;;;;;;4878354;29;20052;-45
2021/06/14 00:26:24;;;;;;;2.25;2.05;;;;;;;;;;4879553;29;20033;-45
2021/06/14 00:28:50;;;;;;;7.00;2.53;;;;;;;;;;4879593;29;20017;-45
2021/06/14 00:31:15;;;;;;;5.97;2.03;;;;;;;;;;4879385;29;20388;-45
2021/06/14 00:33:41;;;;;;;2.67;2.45;;;;;;;;;;4879417;29;20028;-45
2021/06/14 00:36:07;;;;;;;4.55;2.28;;;;;;;;;;4879221;29;20064;-44
2021/06/14 00:38:32;;;;;;;2.35;1.92;;;;;;;;;;4879005;29;20045;-45
2021/06/14 00:40:58;;;;;;;2.42;2.22;;;;;;;;;;4879143;29;20052;-44
2021/06/14 00:43:23;;;;;;;3.97;2.42;;;;;;;;;;4879029;29;20081;-45
2021/06/14 00:45:50;;;;;;;2.22;2.00;;;;;;;;;;4877839;29;20060;-45
2021/06/14 00:48:16;;;;;;;2.38;2.15;;;;;;;;;;4879074;29;20507;-45
2021/06/14 00:50:47;;;;;;;5.00;2.15;;;;;;;;;;4877748;29;20040;-44
2021/06/14 00:53:15;;;;;;;2.63;1.70;;;;;;;;;;4879268;29;20041;-45
2021/06/14 00:55:41;;;;;;;4.28;1.80;;;;;;;;;;4877497;29;20044;-45
2021/06/14 00:58:07;;;;;;;2.63;2.42;;;;;;;;;;4878963;29;20037;-45
2021/06/14 01:00:33;;;;;;;3.08;1.85;;;;;;;;;;4878165;29;20033;-44
2021/06/14 01:02:58;;;;;;;1.90;1.80;;;;;;;;;;4879116;29;20031;-45
2021/06/14 01:05:24;;;;;;;3.05;2.15;;;;;;;;;;4877526;29;20451;-45
2021/06/14 01:07:52;;;;;;;3.90;2.22;;;;;;;;;;4877632;29;20029;-45
2021/06/14 01:10:19;;;;;;;3.08;1.95;;;;;;;;;;4878796;29;20025;-45
2021/06/14 01:13:08;;;;;;;5.55;1.92;;;;;;;;;;4877560;29;20044;-45
2021/06/14 01:15:38;;;;;;;5.88;1.98;;;;;;;;;;4878717;29;20116;-44
2021/06/14 01:18:07;;;;;;;3.45;1.83;;;;;;;;;;4877543;29;20033;-44
2021/06/14 01:20:42;;;;;;;3.70;2.25;;;;;;;;;;4877401;29;20028;-45
2021/06/14 01:23:20;;;;;;;3.88;1.95;;;;;;;;;;4878624;29;20088;-45
2021/06/14 01:25:51;;;;;;;4.35;2.08;;;;;;;;;;4878655;29;20043;-45
2021/06/14 01:28:20;;;;;;;1.70;1.60;;;;;;;;;;4878917;29;20075;-45
2021/06/14 01:30:47;;;;;;;5.80;2.08;;;;;;;;;;4877381;29;20036;-45
2021/06/14 01:33:18;;;;;;;2.00;1.55;;;;;;;;;;4877398;29;20029;-45
2021/06/14 01:35:46;;;;;;;7.90;1.98;;;;;;;;;;4878680;29;20037;-45
2021/06/14 01:38:12;;;;;;;8.50;1.70;;;;;;;;;;4877094;29;20053;-45
2021/06/14 01:40:39;;;;;;;4.03;1.95;;;;;;;;;;4878456;29;20116;-46
2021/06/14 01:43:10;;;;;;;1.75;1.60;;;;;;;;;;4862242;29;20064;-45
2021/06/14 01:45:39;;;;;;;2.92;2.22;;;;;;;;;;4878645;29;20036;-45
2021/06/14 01:48:05;;;;;;;2.00;1.52;;;;;;;;;;4877303;29;20048;-44
2021/06/14 01:50:31;;;;;;;3.60;2.42;;;;;;;;;;4877146;29;20488;-44
2021/06/14 01:52:57;;;;;;;4.03;1.58;;;;;;;;;;4877208;29;20036;-44
2021/06/14 01:55:23;;;;;;;8.15;1.35;;;;;;;;;;4877035;29;20044;-44
2021/06/14 01:57:56;;;;;;;2.25;2.05;;;;;;;;;;4877213;29;20579;-44
2021/06/14 02:00:31;;;;;;;2.70;2.08;;;;;;;;;;4877084;29;20045;-45
2021/06/14 02:03:17;;;;;;;1.60;1.50;;;;;;;;;;4877174;29;20029;-44
2021/06/14 02:05:46;;;;;;;2.22;1.98;;;;;;;;;;4877097;29;20045;-45
2021/06/14 02:08:14;;;;;;;4.30;1.67;;;;;;;;;;4878403;29;20033;-44
2021/06/14 02:10:39;;;;;;;3.03;1.60;;;;;;;;;;4877003;29;20066;-45
2021/06/14 02:13:09;;;;;;;2.88;1.70;;;;;;;;;;4881378;29;20100;-44
2021/06/14 02:15:35;;;;;;;4.75;1.75;;;;;;;;;;4881543;29;20396;-44
2021/06/14 02:18:04;;;;;;;2.92;1.50;;;;;;;;;;4881760;29;20021;-44
2021/06/14 02:20:31;;;;;;;2.28;1.67;;;;;;;;;;4880289;29;20057;-45
2021/06/14 02:22:57;;;;;;;3.53;1.25;;;;;;;;;;4881643;29;20037;-44
2021/06/14 02:25:22;;;;;;;4.38;1.70;;;;;;;;;;4881510;29;20037;-46
2021/06/14 02:27:53;;;;;;;2.17;1.52;;;;;;;;;;4880218;29;20111;-44
2021/06/14 02:30:22;;;;;;;4.60;2.03;;;;;;;;;;4880342;29;20085;-44
2021/06/14 02:32:48;;;;;;;4.22;1.50;;;;;;;;;;4881428;29;20476;-45
2021/06/14 02:35:14;;;;;;;1.73;1.45;;;;;;;;;;4880053;29;20036;-44
2021/06/14 02:37:43;;;;;;;6.70;1.42;;;;;;;;;;4881310;29;20056;-46
2021/06/14 02:40:09;;;;;;;1.60;1.42;;;;;;;;;;4880085;29;20029;-44
2021/06/14 02:42:35;;;;;;;3.08;1.40;;;;;;;;;;4879993;29;20120;-47
2021/06/14 02:45:01;;;;;;;2.38;1.73;;;;;;;;;;4881491;29;20025;-45
2021/06/14 02:47:27;;;;;;;1.75;1.60;;;;;;;;;;4881022;29;20064;-45
2021/06/14 02:49:55;;;;;;;2.20;1.55;;;;;;;;;;4879926;29;20072;-44
2021/06/14 02:52:21;;;;;;;2.22;1.88;;;;;;;;;;4879805;29;20025;-45
2021/06/14 02:54:58;;;;;;;2.90;1.83;;;;;;;;;;4881296;29;20032;-44
2021/06/14 02:57:25;;;;;;;3.92;1.77;;;;;;;;;;4879580;29;20059;-45
2021/06/14 02:59:54;;;;;;;1.25;1.15;;;;;;;;;;4880968;29;20056;-45
2021/06/14 03:02:22;;;;;;;6.10;1.88;;;;;;;;;;4881118;29;20066;-45
2021/06/14 03:04:47;;;;;;;3.25;1.98;;;;;;;;;;4879605;29;20018;-44
2021/06/14 03:07:13;;;;;;;4.53;1.48;;;;;;;;;;4880807;29;20029;-45
2021/06/14 03:09:39;;;;;;;5.10;1.50;;;;;;;;;;4880652;29;20029;-45
2021/06/14 03:12:05;;;;;;;2.38;1.48;;;;;;;;;;4880771;29;20029;-45
2021/06/14 03:14:32;;;;;;;3.67;2.28;;;;;;;;;;4879407;29;20388;-45
2021/06/14 03:16:58;;;;;;;3.70;1.90;;;;;;;;;;4880462;29;20435;-45
2021/06/14 03:19:26;;;;;;;2.50;1.75;;;;;;;;;;4880623;29;20105;-45
2021/06/14 03:21:58;;;;;;;4.28;1.17;;;;;;;;;;4879368;29;20033;-45
2021/06/14 03:24:28;;;;;;;2.53;2.00;;;;;;;;;;4879708;29;20041;-46
2021/06/14 03:26:54;;;;;;;4.03;1.63;;;;;;;;;;4880726;29;20033;-45
2021/06/14 03:29:23;;;;;;;3.95;1.48;;;;;;;;;;4880747;29;20432;-45
2021/06/14 03:31:49;;;;;;;2.95;1.00;;;;;;;;;;4880393;29;20051;-45
2021/06/14 03:34:15;;;;;;;2.38;1.48;;;;;;;;;;4879173;29;20523;-44
2021/06/14 03:36:41;;;;;;;3.60;1.60;;;;;;;;;;4880218;29;20084;-45
2021/06/14 03:39:06;;;;;;;1.45;1.05;;;;;;;;;;4880086;29;20076;-45
2021/06/14 03:41:32;;;;;;;1.80;1.70;;;;;;;;;;4880189;29;20433;-45
2021/06/14 03:44:00;;;;;;;3.30;1.30;;;;;;;;;;4880229;29;20029;-44
2021/06/14 03:46:26;;;;;;;8.48;2.10;;;;;;;;;;4879998;29;20044;-46
2021/06/14 03:48:51;;;;;;;1.45;1.25;;;;;;;;;;4880427;29;20028;-45
2021/06/14 03:51:17;;;;;;;3.40;1.88;;;;;;;;;;4880040;29;20028;-44
2021/06/14 03:53:56;;;;;;;5.43;1.40;;;;;;;;;;4879967;29;20384;-44
2021/06/14 03:56:21;;;;;;;1.73;1.33;;;;;;;;;;4879945;29;20412;-45
2021/06/14 03:58:46;;;;;;;2.47;1.60;;;;;;;;;;4879839;29;20028;-45
2021/06/14 04:01:12;;;;;;;4.38;1.58;;;;;;;;;;4879904;29;20048;-44
2021/06/14 04:03:37;;;;;;;1.95;1.35;;;;;;;;;;4879763;29;20027;-45
2021/06/14 04:06:03;;;;;;;3.95;1.27;;;;;;;;;;4880018;29;20040;-46
2021/06/14 04:08:37;;;;;;;3.63;1.77;;;;;;;;;;4878428;29;20021;-45
2021/06/14 04:11:03;;;;;;;4.25;1.98;;;;;;;;;;4879785;29;20033;-44
2021/06/14 04:13:29;;;;;;;1.30;1.20;;;;;;;;;;4879454;29;20043;-44
2021/06/14 04:15:54;;;;;;;4.03;1.60;;;;;;;;;;4879792;29;20089;-45
2021/06/14 04:18:20;;;;;;;2.60;1.65;;;;;;;;;;4879908;29;20017;-44
2021/06/14 04:20:45;;;;;;;4.20;1.80;;;;;;;;;;4878183;29;20128;-45
2021/06/14 04:23:11;;;;;;;4.18;1.27;;;;;;;;;;4879794;29;20100;-45
2021/06/14 04:25:36;;;;;;;1.88;1.60;;;;;;;;;;4879426;29;20384;-45
2021/06/14 04:28:03;;;;;;;3.55;1.38;;;;;;;;;;4879353;29;20028;-45
2021/06/14 04:30:29;;;;;;;5.68;1.63;;;;;;;;;;4878122;29;20029;-45
2021/06/14 04:32:54;;;;;;;1.70;1.48;;;;;;;;;;4879347;29;20021;-45
2021/06/14 04:35:19;;;;;;;5.45;1.60;;;;;;;;;;4879172;29;20069;-44
2021/06/14 04:37:45;;;;;;;1.80;1.35;;;;;;;;;;4877797;29;20057;-45
2021/06/14 04:40:11;;;;;;;3.17;1.48;;;;;;;;;;4879281;29;20108;-45
2021/06/14 04:42:37;;;;;;;4.47;1.40;;;;;;;;;;4879357;29;20041;-45
2021/06/14 04:45:03;;;;;;;2.47;1.35;;;;;;;;;;4877887;29;20033;-45
2021/06/14 04:47:28;;;;;;;4.00;1.40;;;;;;;;;;4879375;29;20117;-45
2021/06/14 04:49:54;;;;;;;1.52;1.42;;;;;;;;;;4879078;29;20115;-45
2021/06/14 04:52:19;;;;;;;4.53;1.40;;;;;;;;;;4879076;29;20056;-45
2021/06/14 04:54:44;;;;;;;1.60;1.23;;;;;;;;;;4879074;29;20448;-45
2021/06/14 04:57:10;;;;;;;5.28;1.52;;;;;;;;;;4879083;29;20472;-44
2021/06/14 04:59:35;;;;;;;6.90;1.63;;;;;;;;;;4878954;29;20052;-45
2021/06/14 05:02:01;;;;;;;4.70;1.60;;;;;;;;;;4878966;29;20491;-45
2021/06/14 05:04:27;;;;;;;3.72;1.67;;;;;;;;;;4878975;29;20036;-44
2021/06/14 05:06:52;;;;;;;2.40;1.40;;;;;;;;;;4879128;29;20500;-44
2021/06/14 05:09:17;;;;;;;3.10;2.17;;;;;;;;;;4878889;29;20137;-44
2021/06/14 05:11:43;;;;;;;4.65;1.65;;;;;;;;;;4877505;29;20021;-45
2021/06/14 05:14:08;;;;;;;3.88;1.50;;;;;;;;;;4878787;29;20036;-44
2021/06/14 05:16:34;;;;;;;4.95;2.42;;;;;;;;;;4878773;29;20033;-45
2021/06/14 05:18:59;;;;;;;5.53;1.33;;;;;;;;;;4878738;29;20025;-45
2021/06/14 05:21:25;;;;;;;3.88;1.75;;;;;;;;;;4878682;29;20096;-44
2021/06/14 05:23:50;;;;;;;4.38;1.60;;;;;;;;;;4878930;29;20116;-45
2021/06/14 05:26:16;;;;;;;1.92;1.48;;;;;;;;;;4878995;29;20464;-46
2021/06/14 05:28:41;;;;;;;2.42;2.20;;;;;;;;;;4878619;29;20559;-44
2021/06/14 05:31:06;;;;;;;2.65;1.85;;;;;;;;;;4878690;29;20017;-45
2021/06/14 05:33:32;;;;;;;1.50;1.20;;;;;;;;;;4878582;29;20026;-44
2021/06/14 05:35:58;;;;;;;4.80;1.25;;;;;;;;;;4877241;29;20377;-45
2021/06/14 05:38:23;;;;;;;6.15;1.45;;;;;;;;;;4878532;29;20053;-44
2021/06/14 05:40:48;;;;;;;6.13;1.80;;;;;;;;;;4878680;29;20572;-44
2021/06/14 05:43:14;;;;;;;4.82;1.98;;;;;;;;;;4878649;29;20048;-44
2021/06/14 05:45:39;;;;;;;4.03;1.73;;;;;;;;;;4877105;29;20029;-44
2021/06/14 05:48:05;;;;;;;8.18;1.42;;;;;;;;;;4881814;29;20036;-44
2021/06/14 05:50:31;;;;;;;5.30;1.50;;;;;;;;;;4880940;29;20076;-45
2021/06/14 05:52:56;;;;;;;4.28;1.33;;;;;;;;;;4881213;29;20499;-45
2021/06/14 05:55:22;;;;;;;2.80;1.38;;;;;;;;;;4882033;29;20066;-45
2021/06/14 05:57:47;;;;;;;3.42;1.23;;;;;;;;;;4882083;29;20040;-44
2021/06/14 06:00:13;;;;;;;1.92;1.50;;;;;;;;;;4882311;29;20025;-44
2021/06/14 06:02:41;;;;;;;4.05;1.63;;;;;;;;;;4881882;29;20033;-44
2021/06/14 06:05:07;;;;;;;2.05;1.60;;;;;;;;;;4881966;29;20069;-44
2021/06/14 06:07:33;;;;;;;1.83;1.45;;;;;;;;;;4882058;29;20037;-44
2021/06/14 06:09:58;;;;;;;2.42;1.20;;;;;;;;;;4882187;29;20052;-44
2021/06/14 06:12:24;;;;;;;2.25;1.63;;;;;;;;;;4881789;29;20051;-45
2021/06/14 06:14:50;;;;;;;7.45;1.25;;;;;;;;;;4880479;29;20029;-44
2021/06/14 06:17:15;;;;;;;2.65;1.10;;;;;;;;;;4881726;29;20531;-45
2021/06/14 06:19:41;;;;;;;3.45;1.65;;;;;;;;;;4880380;29;20018;-44
2021/06/14 06:22:07;;;;;;;3.13;1.65;;;;;;;;;;4881732;29;20033;-45
2021/06/14 06:24:32;;;;;;;8.85;2.17;;;;;;;;;;4881531;29;20017;-45
2021/06/14 06:26:59;;;;;;;5.38;1.50;;;;;;;;;;4881850;29;20041;-45
2021/06/14 06:29:24;;;;;;;1.35;1.20;;;;;;;;;;4881570;29;20448;-44
2021/06/14 06:31:50;;;;;;;3.20;1.40;;;;;;;;;;4881487;29;20067;-45
2021/06/14 06:34:16;;;;;;;4.38;1.48;;;;;;;;;;4881752;29;20092;-44
2021/06/14 06:36:41;;;;;;;4.18;1.73;;;;;;;;;;4881154;29;20476;-44
2021/06/14 06:39:06;;;;;;;3.53;1.73;;;;;;;;;;4881203;29;20049;-44
2021/06/14 06:41:32;;;;;;;6.05;1.48;;;;;;;;;;4881364;29;20029;-45
2021/06/14 06:43:57;;;;;;;2.55;1.35;;;;;;;;;;4881222;29;20037;-45
2021/06/14 06:46:23;;;;;;;3.25;1.48;;;;;;;;;;4881272;29;20033;-45
2021/06/14 06:48:48;;;;;;;3.67;1.33;;;;;;;;;;4881132;29;20487;-44
2021/06/14 06:51:14;;;;;;;3.30;1.52;;;;;;;;;;4881069;29;20077;-44
2021/06/14 06:53:39;;;;;;;4.90;2.05;;;;;;;;;;4881031;29;20033;-45
2021/06/14 06:56:05;;;;;;;2.05;1.27;;;;;;;;;;4879839;29;20032;-45
2021/06/14 06:58:30;;;;;;;5.40;1.77;;;;;;;;;;4880111;29;20032;-44
2021/06/14 07:00:58;;;;;;;4.82;1.15;;;;;;;;;;4881070;29;20109;-45
2021/06/14 07:03:23;;;;;;;2.25;1.50;;;;;;;;;;4881122;29;20056;-45
2021/06/14 07:05:49;;;;;;;3.05;1.60;;;;;;;;;;4880764;29;20060;-45
2021/06/14 07:08:14;;;;;;;1.85;1.50;;;;;;;;;;4881219;29;20032;-45
2021/06/14 07:10:40;;;;;;;5.55;1.50;;;;;;;;;;4880692;29;20480;-45
2021/06/14 07:13:06;;;;;;;2.88;1.63;;;;;;;;;;4880827;29;20104;-45
2021/06/14 07:15:32;;;;;;;2.72;1.63;;;;;;;;;;4880532;29;20025;-45
2021/06/14 07:17:57;;;;;;;1.70;1.50;;;;;;;;;;4880319;29;20361;-45
2021/06/14 07:20:23;;;;;;;1.73;1.30;;;;;;;;;;4880688;29;20045;-45
2021/06/14 07:22:48;;;;;;;3.22;1.42;;;;;;;;;;4880846;29;20036;-45
2021/06/14 07:25:14;;;;;;;4.93;1.30;;;;;;;;;;4880779;29;20036;-44
2021/06/14 07:27:41;;;;;;;3.10;1.77;;;;;;;;;;4880660;29;20013;-45
2021/06/14 07:30:08;;;;;;;2.88;1.40;;;;;;;;;;4880552;29;20492;-45
2021/06/14 07:32:33;;;;;;;1.80;1.67;;;;;;;;;;4880328;29;20384;-45
2021/06/14 07:34:59;;;;;;;5.28;1.77;;;;;;;;;;4879115;29;20041;-45
2021/06/14 07:37:24;;;;;;;4.22;2.03;;;;;;;;;;4880137;29;20132;-45
2021/06/14 07:39:50;;;;;;;5.55;1.83;;;;;;;;;;4878927;29;20037;-45
2021/06/14 07:42:16;;;;;;;3.30;1.70;;;;;;;;;;4880315;29;20076;-45
2021/06/14 07:44:42;;;;;;;2.75;1.40;;;;;;;;;;4880355;29;20040;-45
2021/06/14 07:47:07;;;;;;;2.45;1.92;;;;;;;;;;4880325;29;20376;-45
2021/06/14 07:49:35;;;;;;;4.40;1.77;;;;;;;;;;4880100;29;20428;-45
2021/06/14 07:52:00;;;;;;;7.05;1.95;;;;;;;;;;4880060;29;20025;-45
2021/06/14 07:54:26;;;;;;;3.45;1.88;;;;;;;;;;4880260;29;20029;-45
2021/06/14 07:56:52;;;;;;;1.88;1.75;;;;;;;;;;4880083;29;20032;-44
2021/06/14 07:59:18;;;;;;;1.77;1.60;;;;;;;;;;4878719;29;20047;-44
2021/06/14 08:01:43;;;;;;;2.22;1.98;;;;;;;;;;4880056;29;20021;-45
2021/06/14 08:04:09;;;;;;;1.80;1.40;;;;;;;;;;4880192;29;20520;-45
2021/06/14 08:06:34;;;;;;;1.52;1.38;;;;;;;;;;4879731;29;20021;-45
2021/06/14 08:09:03;;;;;;;4.10;1.50;;;;;;;;;;4879736;29;20041;-45
2021/06/14 08:11:29;;;;;;;2.20;1.90;;;;;;;;;;4879603;29;20021;-45
2021/06/14 08:13:55;;;;;;;6.53;1.80;;;;;;;;;;4878518;29;20032;-45
2021/06/14 08:16:20;;;;;;;7.10;1.63;;;;;;;;;;4879397;29;20384;-45
2021/06/14 08:18:49;;;;;;;2.28;1.98;;;;;;;;;;4879550;29;20040;-44
2021/06/14 08:26:29;;;;;;;1.70;1.60;;;;;;;;;;4879531;29;20032;-45
2021/06/14 08:28:56;;;;;;;4.13;1.30;;;;;;;;;;4879346;29;20506;-45
2021/06/14 08:31:22;;;;;;;2.90;1.83;;;;;;;;;;4879659;29;20107;-44
2021/06/14 08:33:47;;;;;;;7.75;2.42;;;;;;;;;;4878139;29;20084;-44
2021/06/14 08:36:13;;;;;;;2.85;1.67;;;;;;;;;;4879200;29;20052;-44
2021/06/14 08:38:38;;;;;;;3.45;1.50;;;;;;;;;;4877897;29;20108;-44
2021/06/14 08:41:03;;;;;;;4.28;2.15;;;;;;;;;;4879145;29;20044;-45
2021/06/14 08:43:29;;;;;;;3.15;1.65;;;;;;;;;;4879355;29;20017;-44
2021/06/14 08:45:55;;;;;;;4.47;2.00;;;;;;;;;;4879374;29;20182;-44
2021/06/14 08:48:21;;;;;;;3.35;2.45;;;;;;;;;;4879165;29;20021;-44
2021/06/14 08:50:46;;;;;;;2.38;1.70;;;;;;;;;;4877769;29;20035;-45
2021/06/14 08:53:12;;;;;;;3.80;1.42;;;;;;;;;;4879268;29;20048;-45
2021/06/14 08:55:37;;;;;;;2.50;1.75;;;;;;;;;;4879113;29;20477;-44
2021/06/14 08:58:03;;;;;;;3.40;1.42;;;;;;;;;;4879250;29;20376;-44
2021/06/14 09:00:29;;;;;;;1.85;1.67;;;;;;;;;;4879090;29;20451;-44
2021/06/14 09:02:55;;;;;;;6.35;1.77;;;;;;;;;;4878960;29;20646;-44
2021/06/14 09:05:21;;;;;;;2.88;1.65;;;;;;;;;;4879102;29;20029;-45
2021/06/14 09:07:47;;;;;;;6.07;2.13;;;;;;;;;;4879094;29;20033;-45
2021/06/14 09:10:24;;;;;;;5.28;1.60;;;;;;;;;;4878943;29;20029;-45
2021/06/14 09:12:49;;;;;;;3.33;1.67;;;;;;;;;;4878967;29;20037;-44
2021/06/14 09:15:15;;;;;;;5.25;1.38;;;;;;;;;;4878760;29;20021;-44
2021/06/14 09:17:51;;;;;;;2.45;1.40;;;;;;;;;;4878617;29;20043;-45
2021/06/14 09:20:16;;;;;;;2.60;1.52;;;;;;;;;;4878807;29;20111;-45
2021/06/14 09:22:42;;;;;;;1.73;1.52;;;;;;;;;;4878320;29;20428;-45
2021/06/14 09:25:12;;;;;;;2.08;1.40;;;;;;;;;;4878755;29;20119;-45
2021/06/14 09:27:41;;;;;;;3.97;1.67;;;;;;;;;;4878771;29;20152;-45
2021/06/14 09:30:10;;;;;;;1.67;1.10;;;;;;;;;;4878996;29;20028;-45
2021/06/14 09:32:36;;;;;;;6.13;1.60;;;;;;;;;;4879140;29;20116;-44
2021/06/14 09:35:02;;;;;;;2.70;1.85;;;;;;;;;;4878573;29;20066;-44
2021/06/14 09:37:27;;;;;;;5.50;2.13;;;;;;;;;;4877426;29;20504;-45
2021/06/14 09:39:52;;;;;;;6.40;2.38;;;;;;;;;;4878770;29;20040;-45
2021/06/14 09:42:22;;;;;;;4.82;1.77;;;;;;;;;;4878540;29;20037;-45
2021/06/14 09:44:48;;;;;;;5.25;1.83;;;;;;;;;;4878446;29;20030;-45
2021/06/14 09:47:15;;;;;;;2.78;2.05;;;;;;;;;;4878707;29;20037;-45
2021/06/14 09:49:41;;;;;;;2.70;1.67;;;;;;;;;;4878445;29;20496;-44
2021/06/14 09:52:12;;;;;;;5.35;1.85;;;;;;;;;;4878486;29;20037;-45
2021/06/14 09:54:37;;;;;;;3.53;2.10;;;;;;;;;;4878349;29;20027;-44
2021/06/14 09:57:04;;;;;;;3.05;1.73;;;;;;;;;;4878661;29;20120;-45
2021/06/14 09:59:40;;;;;;;2.47;1.70;;;;;;;;;;4878357;29;20104;-45
2021/06/14 10:02:06;;;;;;;2.83;2.10;;;;;;;;;;4878378;29;20025;-45
2021/06/14 10:04:32;;;;;;;2.75;1.65;;;;;;;;;;4877041;29;20032;-45
2021/06/14 10:07:08;;;;;;;3.00;1.70;;;;;;;;;;4878441;29;20033;-45
2021/06/14 10:09:44;;;;;;;3.25;2.10;;;;;;;;;;4878158;29;20072;-45
2021/06/14 10:12:18;;;;;;;2.58;1.92;;;;;;;;;;4878405;29;20586;-44
2021/06/14 10:14:50;;;;;;;4.18;1.80;;;;;;;;;;4878177;29;20065;-45
2021/06/14 10:17:28;;;;;;;6.78;2.38;;;;;;;;;;4878113;29;20041;-44
2021/06/14 10:19:53;;;;;;;4.40;1.80;;;;;;;;;;4878333;29;20039;-45
2021/06/14 10:22:19;;;;;;;2.13;1.90;;;;;;;;;;4878288;29;20025;-44
2021/06/14 10:24:45;;;;;;;6.22;1.70;;;;;;;;;;4878058;29;20029;-44
2021/06/14 10:27:10;;;;;;;2.97;2.20;;;;;;;;;;4878478;29;20025;-45
2021/06/14 10:29:36;;;;;;;3.80;2.47;;;;;;;;;;4878132;29;20556;-45
2021/06/14 10:32:01;;;;;;;3.75;2.28;;;;;;;;;;4878223;29;20385;-45
2021/06/14 10:34:27;;;;;;;3.28;2.30;;;;;;;;;;4881754;29;20119;-45
2021/06/14 10:36:53;;;;;;;3.95;2.72;;;;;;;;;;4879961;29;20067;-45
2021/06/14 10:39:20;;;;;;;4.28;2.63;;;;;;;;;;4880089;29;20041;-45
2021/06/14 10:41:46;;;;;;;2.67;2.22;;;;;;;;;;4881379;29;20040;-45
2021/06/14 10:44:11;;;;;;;3.35;2.20;;;;;;;;;;4880100;29;20029;-45
2021/06/14 10:46:42;;;;;;;3.90;2.40;;;;;;;;;;4881176;29;20380;-44
2021/06/14 10:49:09;;;;;;;6.07;2.45;;;;;;;;;;4881211;29;20033;-45
2021/06/14 10:51:35;;;;;;;5.40;2.78;;;;;;;;;;4881364;29;20354;-45
2021/06/14 10:54:04;;;;;;;2.50;2.28;;;;;;;;;;4881138;29;20469;-44
2021/06/14 10:56:30;;;;;;;3.17;2.28;;;;;;;;;;4880933;29;20037;-45
2021/06/14 10:58:55;;;;;;;6.15;2.20;;;;;;;;;;4879873;29;20126;-45
2021/06/14 11:01:28;;;;;;;3.50;2.05;;;;;;;;;;4881256;29;20108;-45
2021/06/14 11:03:53;;;;;;;4.82;2.50;;;;;;;;;;4880956;29;20029;-45
2021/06/14 11:06:22;;;;;;;3.80;2.08;;;;;;;;;;4879593;29;20029;-44
2021/06/14 11:09:08;;;;;;;4.18;2.20;;;;;;;;;;4880847;29;20098;-44
2021/06/14 11:11:44;;;;;;;4.13;2.35;;;;;;;;;;4880529;29;20096;-45
2021/06/14 11:14:09;;;;;;;8.43;2.38;;;;;;;;;;4881012;29;20436;-45
2021/06/14 11:16:36;;;;;;;6.85;2.08;;;;;;;;;;4880281;29;20033;-51
2021/06/14 11:19:03;;;;;;;5.32;2.20;;;;;;;;;;4881035;29;20155;-44
2021/06/14 11:21:28;;;;;;;2.40;2.00;;;;;;;;;;4880840;29;20123;-45
2021/06/14 11:24:03;;;;;;;5.10;2.30;;;;;;;;;;4880563;29;20108;-45
2021/06/14 11:26:30;;;;;;;4.93;2.17;;;;;;;;;;4879302;29;20105;-45
2021/06/14 11:28:56;;;;;;;3.03;2.25;;;;;;;;;;4880380;29;20025;-45
2021/06/14 11:31:23;;;;;;;3.78;2.05;;;;;;;;;;4880529;29;20122;-44
2021/06/14 11:33:49;;;;;;;4.20;2.53;;;;;;;;;;4880678;29;20024;-45
2021/06/14 11:36:16;;;;;;;4.22;2.38;;;;;;;;;;4880312;29;20041;-44
2021/06/14 11:38:42;;;;;;;4.05;2.38;;;;;;;;;;4880208;29;20056;-45
2021/06/14 11:41:08;;;;;;;3.05;2.55;;;;;;;;;;4879945;29;20033;-45
2021/06/14 11:43:33;;;;;;;5.00;2.78;;;;;;;;;;4878879;29;20393;-44
2021/06/14 11:45:59;;;;;;;2.03;1.80;;;;;;;;;;4879808;29;20029;-45
2021/06/14 11:48:31;;;;;;;2.40;2.20;;;;;;;;;;4880177;29;20197;-45
2021/06/14 11:51:02;;;;;;;5.80;2.10;;;;;;;;;;4880194;29;20031;-44
2021/06/14 11:53:27;;;;;;;5.10;2.15;;;;;;;;;;4880148;29;20279;-45
2021/06/14 11:55:52;;;;;;;3.90;2.92;;;;;;;;;;4879839;29;20632;-44
2021/06/14 11:58:18;;;;;;;6.68;2.53;;;;;;;;;;4880049;29;20021;-45
2021/06/14 12:00:45;;;;;;;4.30;2.35;;;;;;;;;;4879921;29;20390;-47
2021/06/14 12:03:24;;;;;;;3.13;2.30;;;;;;;;;;4879881;29;20032;-45
2021/06/14 12:05:50;;;;;;;2.75;2.40;;;;;;;;;;4879840;29;20126;-44
2021/06/14 12:08:23;;;;;;;2.47;2.28;;;;;;;;;;4880124;29;20035;-45
2021/06/14 12:10:49;;;;;;;3.92;2.70;;;;;;;;;;4879678;29;20500;-45
2021/06/14 12:13:19;;;;;;;2.75;2.38;;;;;;;;;;4879739;29;20077;-44
2021/06/14 12:15:50;;;;;;;4.18;2.38;;;;;;;;;;4879451;29;20032;-44
2021/06/14 12:18:15;;;;;;;5.80;2.42;;;;;;;;;;4879650;29;20036;-45
2021/06/14 12:20:42;;;;;;;3.85;2.60;;;;;;;;;;4879521;29;20380;-45
2021/06/14 12:23:09;;;;;;;6.13;2.97;;;;;;;;;;4879575;29;20033;-46
2021/06/14 12:26:01;;;;;;;3.88;2.80;;;;;;;;;;4879288;29;20080;-45
2021/06/14 12:28:27;;;;;;;3.25;2.63;;;;;;;;;;4880085;29;20041;-45
2021/06/14 12:31:00;;;;;;;3.72;2.63;;;;;;;;;;4879542;29;20025;-44
2021/06/14 12:33:29;;;;;;;2.47;2.20;;;;;;;;;;4879658;29;20037;-45
2021/06/14 12:35:56;;;;;;;2.80;2.38;;;;;;;;;;4879139;29;20124;-45
2021/06/14 12:38:21;;;;;;;2.55;2.33;;;;;;;;;;4879145;29;20045;-44
2021/06/14 12:40:47;;;;;;;5.50;2.45;;;;;;;;;;4879425;29;20029;-44
2021/06/14 12:43:13;;;;;;;5.53;2.80;;;;;;;;;;4879468;29;20044;-44
2021/06/14 12:45:39;;;;;;;2.97;2.67;;;;;;;;;;4879050;29;20093;-45
2021/06/14 12:48:08;;;;;;;4.78;2.38;;;;;;;;;;4879391;29;20095;-45
2021/06/14 12:50:50;;;;;;;3.75;2.75;;;;;;;;;;4877874;29;20100;-45
2021/06/14 12:53:18;;;;;;;3.50;2.70;;;;;;;;;;4879282;29;20041;-45
2021/06/14 12:55:44;;;;;;;3.25;2.45;;;;;;;;;;4878560;29;20029;-45
2021/06/14 12:58:14;;;;;;;3.47;2.35;;;;;;;;;;4878893;29;20115;-45
2021/06/14 13:00:42;;;;;;;4.18;2.30;;;;;;;;;;4878885;29;20036;-45
2021/06/14 13:03:08;;;;;;;3.00;2.65;;;;;;;;;;4879245;29;20380;-45
2021/06/14 13:05:39;;;;;;;4.90;2.55;;;;;;;;;;4879099;29;20025;-46
2021/06/14 13:08:06;;;;;;;4.43;2.22;;;;;;;;;;4878908;29;20042;-45
2021/06/14 13:10:33;;;;;;;3.60;2.60;;;;;;;;;;4879084;29;20053;-45
2021/06/14 13:12:58;;;;;;;3.38;2.33;;;;;;;;;;4878885;29;20128;-45
2021/06/14 13:15:30;;;;;;;2.67;2.45;;;;;;;;;;4878962;29;20069;-45
2021/06/14 13:17:56;;;;;;;4.07;2.70;;;;;;;;;;4879135;29;20048;-45
2021/06/14 13:20:38;;;;;;;4.45;2.53;;;;;;;;;;4879051;29;20533;-45
2021/06/14 13:23:08;;;;;;;4.60;2.53;;;;;;;;;;4877572;29;20437;-45
2021/06/14 13:25:36;;;;;;;2.83;2.38;;;;;;;;;;4878856;29;20039;-44
2021/06/14 13:28:02;;;;;;;3.67;3.00;;;;;;;;;;4878639;29;20033;-45
2021/06/14 13:30:36;;;;;;;2.13;1.92;;;;;;;;;;4878675;29;20373;-45
2021/06/14 13:35:27;;;;;;;4.78;3.42;;;;;;;;;;4878617;29;20055;-45
2021/06/14 13:37:54;;;;;;;5.38;3.17;;;;;;;;;;4878157;29;20395;-45
2021/06/14 13:40:20;;;;;;;4.10;2.90;;;;;;;;;;4878597;29;20043;-45
2021/06/14 13:42:47;;;;;;;3.65;2.47;;;;;;;;;;4878778;29;20119;-44
2021/06/14 13:45:13;;;;;;;3.42;2.33;;;;;;;;;;4878765;29;20073;-44
2021/06/14 13:47:38;;;;;;;2.90;2.63;;;;;;;;;;4878795;29;20429;-45
2021/06/14 13:50:07;;;;;;;3.38;2.72;;;;;;;;;;4878475;29;20117;-46
2021/06/14 13:52:33;;;;;;;5.45;2.53;;;;;;;;;;4878370;29;20036;-44
2021/06/14 13:54:59;;;;;;;5.82;2.92;;;;;;;;;;4878742;29;20033;-45
2021/06/14 13:57:25;;;;;;;3.15;2.85;;;;;;;;;;4877177;29;20132;-44
2021/06/14 13:59:50;;;;;;;3.35;2.45;;;;;;;;;;4878432;29;20510;-45
2021/06/14 14:02:18;;;;;;;4.80;3.10;;;;;;;;;;4878430;29;20056;-45
2021/06/14 14:04:43;;;;;;;3.65;2.80;;;;;;;;;;4878131;29;20476;-51
2021/06/14 14:07:09;;;;;;;5.70;2.95;;;;;;;;;;4878786;29;20173;-45
2021/06/14 14:09:34;;;;;;;4.78;3.00;;;;;;;;;;4881875;29;20053;-45
2021/06/14 14:12:02;;;;;;;4.28;3.22;;;;;;;;;;4880662;29;20037;-45
2021/06/14 14:14:29;;;;;;;3.30;2.95;;;;;;;;;;4881837;29;20021;-45
2021/06/14 14:16:54;;;;;;;3.75;3.08;;;;;;;;;;4881625;29;20041;-45
2021/06/14 14:19:21;;;;;;;4.95;3.17;;;;;;;;;;4881785;29;20384;-44
2021/06/14 14:21:47;;;;;;;3.90;2.45;;;;;;;;;;4881634;29;20047;-46
2021/06/14 14:24:12;;;;;;;5.35;2.95;;;;;;;;;;4881932;29;20017;-44
2021/06/14 14:26:40;;;;;;;4.00;2.53;;;;;;;;;;4881579;29;20509;-45
2021/06/14 14:29:07;;;;;;;3.08;2.63;;;;;;;;;;4881549;29;20041;-44
2021/06/14 14:31:38;;;;;;;2.63;2.30;;;;;;;;;;4881746;29;20041;-45
2021/06/14 14:34:04;;;;;;;3.30;3.00;;;;;;;;;;4881682;29;20025;-45
2021/06/14 14:36:33;;;;;;;4.40;3.30;;;;;;;;;;4881693;29;20051;-44
2021/06/14 14:39:25;;;;;;;2.78;2.38;;;;;;;;;;4881254;29;20144;-45
2021/06/14 14:41:51;;;;;;;3.88;3.03;;;;;;;;;;4879921;29;20055;-44
2021/06/14 14:44:22;;;;;;;5.40;2.80;;;;;;;;;;4881357;29;20024;-44
2021/06/14 14:46:47;;;;;;;4.30;3.13;;;;;;;;;;4881227;29;20044;-44
2021/06/14 14:49:13;;;;;;;3.78;2.70;;;;;;;;;;4881253;29;20184;-45
2021/06/14 14:51:39;;;;;;;3.15;2.80;;;;;;;;;;4881192;29;20440;-46